Airfield :
LOGIN :

Register | Disclaimer

   EN    FR    IT 

 










Legend :    VFR   Marginal VFR   IFR   Intensive IFR   Very Intensive IFR
Visi :
Ceiling :
>= 8 km
>= 3000ft
5 to 8 km
1000 to 3000 ft
1500m to 5 km
500 to 1000 ft
800 to 1500m
200 to 500 ft
< 800m
< 200 ft
Symbols :   Thunderstorms  Fog  Heavy snow  Heavy precipitations  Wind > 20 kt
SIGMETs :     Misc.  Thunderstorms  Icing  Turbulence  Mountain Waves  Volcanic Ashes







- Airport Elevation : 885 ft
- IATA code : BAS
- Download approach charts


LFSB - Bale-Mulhouse

CURRENT METAR :
  • 191330Z 29011KT 250V310 9999 FEW020 BKN060 08/03 Q1021 NOSIG

EXPIRED METARs :
  • 191300Z 26012KT 9999 SCT020 BKN060 07/03 Q1021 NOSIG
  • 191230Z 26010KT 9999 FEW015 BKN060 07/03 Q1021 NOSIG
  • 191200Z 27011KT 9999 FEW013 BKN056 07/04 Q1021 NOSIG
  • 191130Z 26014KT 9999 FEW013 BKN053 07/04 Q1021 TEMPO 27015G25KT
  • 191100Z 26016KT 9999 FEW013 BKN053 06/04 Q1021 TEMPO 27015G25KT

TAF TAF LFSB
Valid from the 19 at 12:00 until the 20 at 12:00 UTC


191100Z 1912/2012 27010KT 9999 FEW015 BKN040
TEMPO 1912/1914 28015G25KT
BECMG 1921/1924 VRB03KT
PROB40
TEMPO 2000/2004 4000 BR
TEMPO 2004/2008 BKN003
TEMPO 2008/2010 BKN008
Met : +33 3 89 90 31 11
No reported NOTAMs for that airfield.



MET'MAP, your aeronautical weather chart ! - Copyright ORBIFLY December 2007 - Disclaimer

ORBIFLY MET'MAP TEAM :

Programming & Development : Alexandra Zaïnal
Concept & Development : Baudouin d'Aumeries
Co-Development & Prog : Marc-Olivier Méhu
Technical & hardware support : Manuel Goepfert

Contact : metmap@orbifly.com




SOURCES & CREDITS :

   NOAA